This is the latest recevied weather packets stored in our database for station/object E24QND-2. If no packets are shown the sender has not sent any weather packets the latest 10 day(s).
| Time | Temp. | Humidity | Pressure | Rain* | Wind** | Luminosity | Snow |
|---|---|---|---|---|---|---|---|
| 1777635224 | 32.78° C | 7% | - | - | - | 0 W/m² | - |
| 1777633999 | 33.89° C | 1% | - | - | - | 0 W/m² | - |
| 1777632775 | 35° C | 1% | - | - | - | 0 W/m² | - |
| 1777631550 | 34.44° C | 1% | - | - | - | 0 W/m² | - |
| 1777630325 | 34.44° C | 1% | - | - | - | 0 W/m² | - |
| 1777629101 | 34.44° C | 1% | - | - | - | 0 W/m² | - |
| 1777627876 | 36.67° C | 1% | - | - | - | 0 W/m² | - |
| 1777626652 | 37.22° C | 1% | - | - | - | 0 W/m² | - |
| 1777625427 | 37.22° C | 1% | - | - | - | 0 W/m² | - |
| 1777624203 | 36.67° C | 1% | - | - | - | 0 W/m² | - |
| 1777622978 | 36.11° C | 1% | - | - | - | 0 W/m² | - |
| 1777621754 | 35° C | 1% | - | - | - | 0 W/m² | - |
| 1777620529 | 36.67° C | 1% | - | - | - | 0 W/m² | - |
| 1777619304 | 36.67° C | 1% | - | - | - | 0 W/m² | - |
| 1777618079 | 36.67° C | 1% | - | - | - | 0 W/m² | - |
| 1777616855 | 36.67° C | 1% | - | - | - | 0 W/m² | - |
| 1777615630 | 33.33° C | 1% | - | - | - | 0 W/m² | - |
| 1777614406 | 34.44° C | 1% | - | - | - | 0 W/m² | - |
| 1777613181 | 32.78° C | 8% | - | - | - | 0 W/m² | - |
| 1777611957 | 34.44° C | 1% | - | - | - | 0 W/m² | - |
| 1777610732 | 35° C | 1% | - | - | - | 0 W/m² | - |
| 1777609508 | 33.89° C | 1% | - | - | - | 0 W/m² | - |
| 1777608283 | 33.33° C | 6% | - | - | - | 0 W/m² | - |
| 1777607059 | 30.56° C | 22% | - | - | - | 0 W/m² | - |
| 1777605834 | 30.56° C | 28% | - | - | - | 0 W/m² | - |
* Rain since midnight (hover to see other rain measurements)
** Current wind speed in m/s (hover to see current wind gust speed)